Terminal Aerodrome Forecast
Issued by NWS Paducah, KY

Home | Current Version | Previous Version | Text Only | Print | Product List | Glossary On
Versions: 1 2 3 4 5 6 7 8 9 10 11 12 13 14 15 16 17 18 19 20
000
FTUS43 KPAH 211128
TAFEVV
TAF
KEVV 211128Z 2112/2212 18005KT 6SM -DZ BR OVC015
     FM211800 19009KT P6SM OVC008
     FM220300 16008KT P6SM BKN035 WS020/20045KT
     FM220800 16012G16KT P6SM BKN070=

USA.gov is the U.S. government's official web portal to all federal, state and local government web resources and services.